createdAt,value
2022-08-02T00:00:35.047Z,2.03
2022-08-02T00:03:03.111Z,2.43
2022-08-02T00:05:31.370Z,2.13
2022-08-02T00:07:59.479Z,2.35
2022-08-02T00:10:27.548Z,2.10
2022-08-02T00:12:55.696Z,2.28
2022-08-02T00:15:25.400Z,2.00
2022-08-02T00:17:53.473Z,2.30
2022-08-02T00:20:21.576Z,2.13
2022-08-02T00:22:49.692Z,2.10
2022-08-02T00:25:17.739Z,2.15
2022-08-02T00:27:45.768Z,2.37
2022-08-02T00:30:14.447Z,2.58
2022-08-02T00:32:43.929Z,2.85
2022-08-02T00:35:12.054Z,2.90
2022-08-02T00:37:41.136Z,2.70
2022-08-02T00:40:10.519Z,2.40
2022-08-02T00:42:39.077Z,2.95
2022-08-02T00:45:08.188Z,2.90
2022-08-02T00:47:36.572Z,2.78
2022-08-02T00:50:06.825Z,2.55
2022-08-02T00:52:34.878Z,2.73
2022-08-02T00:55:02.955Z,2.83
2022-08-02T00:57:30.998Z,2.72
2022-08-02T00:59:59.092Z,2.60
2022-08-02T01:02:27.137Z,2.92
2022-08-02T01:04:55.166Z,2.73
2022-08-02T01:07:24.697Z,2.90
2022-08-02T01:09:53.005Z,2.65
2022-08-02T01:12:21.159Z,2.80
2022-08-02T01:14:51.866Z,2.55
2022-08-02T01:17:28.939Z,3.23
2022-08-02T01:20:07.497Z,2.55
2022-08-02T01:23:09.775Z,2.83
2022-08-02T01:25:54.732Z,2.80
2022-08-02T01:28:44.581Z,2.78
2022-08-02T01:31:19.801Z,2.83
2022-08-02T01:33:52.924Z,2.67
2022-08-02T01:36:23.276Z,2.47
2022-08-02T01:38:54.107Z,2.60
2022-08-02T01:41:25.724Z,2.65
2022-08-02T01:43:59.018Z,2.67
2022-08-02T01:46:30.242Z,2.83
2022-08-02T01:49:00.693Z,2.50
2022-08-02T01:51:47.329Z,2.67
2022-08-02T01:54:18.785Z,3.28
2022-08-02T01:56:48.973Z,2.80
2022-08-02T01:59:21.982Z,2.72
2022-08-02T02:01:52.144Z,3.00
2022-08-02T02:04:22.276Z,2.75
2022-08-02T02:06:51.593Z,2.67
2022-08-02T02:09:21.235Z,2.83
2022-08-02T02:12:11.039Z,2.85
2022-08-02T02:14:41.996Z,2.33
2022-08-02T02:18:11.658Z,2.80
2022-08-02T02:20:14.184Z,3.05
2022-08-02T02:22:42.835Z,2.50
2022-08-02T02:25:12.503Z,2.75
2022-08-02T02:27:53.946Z,2.90
2022-08-02T02:30:27.045Z,2.42
2022-08-02T02:32:58.498Z,3.10
2022-08-02T02:35:30.869Z,2.80
2022-08-02T02:38:01.945Z,2.72
2022-08-02T02:40:30.913Z,2.75
2022-08-02T02:43:01.920Z,3.08
2022-08-02T02:45:33.020Z,2.60
2022-08-02T02:48:02.731Z,2.50
2022-08-02T02:50:32.140Z,2.50
2022-08-02T02:53:01.635Z,3.00
2022-08-02T02:55:30.292Z,2.70
2022-08-02T02:57:58.816Z,2.80
2022-08-02T03:00:41.146Z,2.70
2022-08-02T03:03:11.168Z,2.53
2022-08-02T03:05:39.210Z,2.55
2022-08-02T03:08:07.358Z,2.90
2022-08-02T03:10:36.057Z,2.50
2022-08-02T03:13:04.682Z,3.03
2022-08-02T03:15:33.070Z,2.85
2022-08-02T03:18:01.122Z,2.88
2022-08-02T03:20:30.629Z,2.63
2022-08-02T03:22:58.653Z,2.65
2022-08-02T03:25:26.826Z,2.43
2022-08-02T03:27:54.870Z,2.95
2022-08-02T03:30:24.664Z,2.80
2022-08-02T03:32:52.861Z,3.13
2022-08-02T03:35:24.139Z,2.83
2022-08-02T03:37:56.652Z,2.90
2022-08-02T03:40:26.190Z,2.78
2022-08-02T03:42:55.530Z,2.80
2022-08-02T03:45:24.800Z,2.70
2022-08-02T03:47:53.458Z,2.42
2022-08-02T03:50:28.140Z,2.93
2022-08-02T03:52:58.530Z,2.70
2022-08-02T03:55:26.551Z,2.63
2022-08-02T03:57:54.640Z,2.50
2022-08-02T04:00:24.208Z,2.63
2022-08-02T04:02:52.727Z,2.70
2022-08-02T04:05:21.422Z,2.80
2022-08-02T04:08:33.961Z,3.00
2022-08-02T04:11:00.530Z,3.30
2022-08-02T04:13:35.636Z,3.20
2022-08-02T04:16:09.225Z,2.70
2022-08-02T04:18:42.418Z,2.70
2022-08-02T04:21:14.477Z,2.58
2022-08-02T04:23:45.617Z,2.83
2022-08-02T04:26:15.466Z,3.28
2022-08-02T04:28:44.904Z,2.90
2022-08-02T04:31:13.251Z,2.75
2022-08-02T04:33:41.493Z,2.80
2022-08-02T04:36:10.706Z,2.95
2022-08-02T04:38:38.789Z,3.20
2022-08-02T04:41:06.834Z,3.43
2022-08-02T04:43:36.277Z,3.22
2022-08-02T04:46:05.108Z,3.17
2022-08-02T04:48:33.214Z,3.35
2022-08-02T04:51:01.690Z,3.42
2022-08-02T04:53:29.744Z,3.70
2022-08-02T04:55:57.777Z,3.38
2022-08-02T04:58:41.261Z,3.60
2022-08-02T05:01:11.039Z,3.50
2022-08-02T05:03:39.166Z,4.20
2022-08-02T05:06:13.260Z,3.57
2022-08-02T05:08:52.792Z,3.95
2022-08-02T05:11:21.833Z,3.70
2022-08-02T05:13:58.701Z,3.50
2022-08-02T05:16:31.247Z,3.80
2022-08-02T05:18:59.813Z,4.30
2022-08-02T05:21:27.887Z,4.13
2022-08-02T05:23:56.083Z,3.90
2022-08-02T05:26:24.094Z,3.55
2022-08-02T05:28:52.199Z,4.38
2022-08-02T05:31:20.248Z,4.37
2022-08-02T05:33:49.846Z,3.55
2022-08-02T05:36:18.012Z,3.65
2022-08-02T05:38:49.629Z,3.80
2022-08-02T05:41:18.079Z,4.45
2022-08-02T05:43:46.162Z,4.00
2022-08-02T05:46:14.341Z,3.63
2022-08-02T05:48:42.415Z,3.40
2022-08-02T05:51:16.664Z,4.63
2022-08-02T05:53:51.148Z,3.58
2022-08-02T05:56:25.101Z,3.40
2022-08-02T05:58:58.158Z,3.63
2022-08-02T06:01:33.603Z,3.45
2022-08-02T06:04:03.148Z,3.67
2022-08-02T06:06:34.338Z,3.42
2022-08-02T06:09:04.215Z,3.30
2022-08-02T06:11:38.262Z,3.28
2022-08-02T06:14:08.457Z,3.40
2022-08-02T06:16:42.162Z,3.33
2022-08-02T06:19:12.812Z,2.83
2022-08-02T06:22:37.546Z,3.20
2022-08-02T06:24:32.959Z,2.70
2022-08-02T06:27:03.026Z,2.75
2022-08-02T06:29:38.753Z,2.58
2022-08-02T06:32:09.164Z,2.97
2022-08-02T06:34:41.143Z,2.80
2022-08-02T06:37:20.551Z,2.67
2022-08-02T06:39:50.780Z,2.92
2022-08-02T06:42:27.489Z,2.90
2022-08-02T06:44:57.943Z,2.80
2022-08-02T06:47:26.406Z,2.17
2022-08-02T06:49:55.052Z,2.88
2022-08-02T06:52:30.927Z,2.80
2022-08-02T06:55:00.489Z,3.05
2022-08-02T06:57:28.748Z,2.58
2022-08-02T06:59:58.621Z,2.80
2022-08-02T07:02:26.836Z,2.60
2022-08-02T07:04:55.674Z,2.90
2022-08-02T07:07:23.978Z,2.10
2022-08-02T07:10:00.399Z,2.65
2022-08-02T07:12:31.717Z,2.73
2022-08-02T07:15:00.380Z,2.58
2022-08-02T07:17:28.582Z,2.97
2022-08-02T07:19:56.871Z,2.45
2022-08-02T07:22:27.050Z,2.33
2022-08-02T07:24:58.217Z,2.73
2022-08-02T07:27:27.001Z,2.42
2022-08-02T07:29:55.710Z,2.65
2022-08-02T07:32:25.813Z,2.42
2022-08-02T07:34:55.372Z,2.80
2022-08-02T07:37:52.929Z,3.00
2022-08-02T07:40:19.807Z,2.70
2022-08-02T07:42:52.022Z,2.80
2022-08-02T07:45:20.991Z,2.60
2022-08-02T07:47:49.573Z,2.70
2022-08-02T07:50:19.433Z,2.50
2022-08-02T07:52:47.776Z,2.90
2022-08-02T07:55:18.242Z,2.88
2022-08-02T07:57:47.294Z,2.38
2022-08-02T08:00:17.695Z,2.60
2022-08-02T08:02:46.297Z,2.80
2022-08-02T08:05:14.848Z,2.70
2022-08-02T08:07:43.040Z,2.70
2022-08-02T08:10:11.776Z,2.30
2022-08-02T08:12:41.240Z,2.88
2022-08-02T08:15:10.461Z,2.43
2022-08-02T08:17:38.757Z,2.22
2022-08-02T08:20:07.838Z,2.28
2022-08-02T08:22:35.900Z,2.10
2022-08-02T08:25:04.220Z,2.55
2022-08-02T08:27:32.326Z,1.90
2022-08-02T08:30:02.069Z,2.40
2022-08-02T08:32:30.088Z,2.47
2022-08-02T08:34:58.050Z,2.30
2022-08-02T08:37:26.028Z,2.00
2022-08-02T08:39:58.011Z,2.55
2022-08-02T08:42:27.499Z,2.17
2022-08-02T08:44:56.408Z,2.15
2022-08-02T08:47:34.729Z,2.33
2022-08-02T08:50:05.498Z,2.50
2022-08-02T08:52:37.792Z,2.00
2022-08-02T08:55:06.659Z,1.83
2022-08-02T08:57:39.573Z,2.25
2022-08-02T09:00:08.984Z,1.88
2022-08-02T09:02:38.770Z,1.90
2022-08-02T09:05:08.406Z,1.92
2022-08-02T09:07:36.486Z,2.30
2022-08-02T09:10:33.125Z,2.17
2022-08-02T09:13:38.626Z,1.92
2022-08-02T09:16:11.533Z,1.80
2022-08-02T09:18:45.352Z,1.70
2022-08-02T09:21:15.443Z,2.07
2022-08-02T09:23:45.566Z,1.92
2022-08-02T09:26:16.598Z,1.77
2022-08-02T09:28:47.243Z,2.05
2022-08-02T09:31:18.980Z,1.77
2022-08-02T09:33:53.952Z,1.80
2022-08-02T09:36:23.113Z,1.50
2022-08-02T09:38:56.902Z,2.00
2022-08-02T09:41:26.603Z,1.60
2022-08-02T09:44:05.087Z,1.70
2022-08-02T09:46:38.745Z,1.73
2022-08-02T09:49:10.282Z,1.70
2022-08-02T09:51:40.365Z,1.73
2022-08-02T09:54:09.938Z,1.90
2022-08-02T09:56:47.539Z,1.85
2022-08-02T09:59:16.264Z,1.77
2022-08-02T10:01:51.479Z,2.10
2022-08-02T10:04:31.553Z,1.85
2022-08-02T10:07:04.291Z,2.00
2022-08-02T10:09:33.136Z,1.90
2022-08-02T10:12:01.687Z,2.03
2022-08-02T10:14:31.911Z,2.10
2022-08-02T10:16:59.957Z,2.00
2022-08-02T10:20:02.599Z,1.98
2022-08-02T10:22:19.422Z,1.92
2022-08-02T10:24:48.944Z,2.13
2022-08-02T10:27:19.959Z,2.00
2022-08-02T10:29:53.539Z,2.00
2022-08-02T10:32:27.725Z,1.92
2022-08-02T10:35:18.450Z,1.80
2022-08-02T10:37:51.954Z,2.00
2022-08-02T10:40:26.854Z,2.00
2022-08-02T10:43:01.050Z,2.00
2022-08-02T10:45:30.067Z,1.63
2022-08-02T10:48:03.674Z,1.90
2022-08-02T10:51:03.748Z,1.98
2022-08-02T10:53:32.588Z,1.87
2022-08-02T10:56:02.360Z,1.80
2022-08-02T10:58:32.932Z,1.90
2022-08-02T11:01:05.365Z,1.95
2022-08-02T11:03:47.474Z,2.10
2022-08-02T11:06:25.479Z,1.90
2022-08-02T11:09:31.788Z,1.73
2022-08-02T11:12:05.336Z,1.90
2022-08-02T11:14:35.415Z,2.03
2022-08-02T11:17:11.749Z,2.13
2022-08-02T11:20:19.605Z,1.80
2022-08-02T11:22:50.677Z,1.73
2022-08-02T11:26:03.221Z,2.20
2022-08-02T11:28:26.129Z,1.98
2022-08-02T11:31:02.831Z,1.63
2022-08-02T11:33:34.674Z,1.90
2022-08-02T11:36:04.745Z,1.95
2022-08-02T11:38:34.387Z,2.00
2022-08-02T11:41:09.448Z,2.08
2022-08-02T11:43:38.590Z,1.80
2022-08-02T11:46:14.404Z,1.90
2022-08-02T11:48:44.256Z,2.00
2022-08-02T11:51:14.213Z,1.90
2022-08-02T11:53:49.124Z,2.10
2022-08-02T11:56:24.873Z,1.77
2022-08-02T11:59:07.822Z,1.80
2022-08-02T12:01:45.414Z,1.80
2022-08-02T12:04:18.416Z,1.75
2022-08-02T12:06:56.025Z,1.60
2022-08-02T12:09:28.087Z,1.90
2022-08-02T12:11:57.891Z,1.70
2022-08-02T12:14:27.944Z,1.98
2022-08-02T12:17:13.762Z,1.80
2022-08-02T12:19:43.520Z,1.60
2022-08-02T12:22:15.512Z,1.80
2022-08-02T12:24:48.263Z,1.87
2022-08-02T12:27:34.147Z,1.88
2022-08-02T12:30:05.942Z,1.73
2022-08-02T12:32:34.164Z,1.67
2022-08-02T12:35:07.569Z,1.52
2022-08-02T12:37:36.501Z,1.77
2022-08-02T12:40:26.822Z,1.30
2022-08-02T12:42:58.432Z,1.52
2022-08-02T12:45:39.177Z,1.50
2022-08-02T12:48:09.496Z,1.60
2022-08-02T12:50:38.996Z,1.73
2022-08-02T12:53:09.343Z,1.60
2022-08-02T12:56:01.931Z,1.52
2022-08-02T12:58:31.563Z,1.58
2022-08-02T13:01:01.557Z,1.48
2022-08-02T13:04:11.413Z,1.77
2022-08-02T13:09:15.594Z,1.48
2022-08-02T13:11:45.451Z,1.75
2022-08-02T13:14:14.438Z,1.50
2022-08-02T13:16:43.532Z,1.30
2022-08-02T13:19:13.053Z,1.60
2022-08-02T13:22:02.077Z,1.45
2022-08-02T13:24:40.694Z,1.60
2022-08-02T13:27:20.983Z,1.60
2022-08-02T13:29:49.715Z,1.50
2022-08-02T13:32:17.954Z,1.75
2022-08-02T13:34:46.255Z,1.50
2022-08-02T13:37:14.388Z,1.52
2022-08-02T13:39:45.649Z,1.48
2022-08-02T13:42:24.945Z,1.50
2022-08-02T13:44:53.072Z,1.52
2022-08-02T13:47:35.994Z,1.50
2022-08-02T13:50:05.181Z,1.17
2022-08-02T13:52:35.280Z,1.40
2022-08-02T13:55:03.462Z,1.50
2022-08-02T13:57:41.858Z,1.30
2022-08-02T14:00:11.580Z,1.35
2022-08-02T14:02:40.638Z,1.52
2022-08-02T14:05:09.567Z,1.42
2022-08-02T14:07:37.607Z,1.50
2022-08-02T14:10:06.472Z,1.23
2022-08-02T14:12:34.505Z,1.40
2022-08-02T14:15:04.050Z,1.42
2022-08-02T14:17:32.050Z,1.38
2022-08-02T14:20:00.061Z,1.37
2022-08-02T14:22:28.852Z,1.33
2022-08-02T14:24:56.912Z,1.40
2022-08-02T14:27:25.187Z,1.50
2022-08-02T14:29:53.247Z,1.67
2022-08-02T14:32:22.655Z,1.50
2022-08-02T14:35:00.114Z,1.65
2022-08-02T14:37:28.085Z,1.50
2022-08-02T14:39:59.619Z,1.35
2022-08-02T14:42:28.852Z,1.30
2022-08-02T14:44:56.901Z,1.70
2022-08-02T14:47:26.305Z,1.30
2022-08-02T14:49:54.420Z,1.20
2022-08-02T14:52:22.630Z,1.30
2022-08-02T14:54:50.693Z,1.52
2022-08-02T14:57:18.757Z,1.17
2022-08-02T14:59:47.300Z,1.20
2022-08-02T15:02:15.955Z,1.55
2022-08-02T15:04:45.598Z,1.40
2022-08-02T15:07:15.118Z,1.52
2022-08-02T15:09:43.160Z,1.40
2022-08-02T15:12:12.202Z,1.70
2022-08-02T15:14:41.041Z,1.20
2022-08-02T15:17:09.735Z,1.52
2022-08-02T15:19:57.474Z,1.40
2022-08-02T15:22:27.565Z,1.40
2022-08-02T15:24:57.155Z,1.20
2022-08-02T15:27:25.243Z,1.40
2022-08-02T15:30:00.342Z,1.40
2022-08-02T15:32:28.790Z,1.70
2022-08-02T15:34:56.831Z,1.53
2022-08-02T15:37:25.399Z,1.55
2022-08-02T15:40:00.536Z,1.48
2022-08-02T15:42:30.560Z,1.90
2022-08-02T15:44:59.351Z,1.60
2022-08-02T15:47:27.500Z,1.20
2022-08-02T15:49:55.655Z,1.50
2022-08-02T15:52:23.701Z,1.67
2022-08-02T15:54:51.824Z,1.70
2022-08-02T15:57:21.271Z,1.60
2022-08-02T15:59:49.297Z,1.23
2022-08-02T16:02:19.065Z,1.50
2022-08-02T16:04:47.422Z,1.30
2022-08-02T16:07:15.606Z,1.60
2022-08-02T16:09:43.784Z,1.70
2022-08-02T16:12:12.105Z,1.40
2022-08-02T16:14:41.699Z,1.45
2022-08-02T16:17:09.715Z,1.30
2022-08-02T16:19:49.182Z,1.40
2022-08-02T16:22:17.949Z,1.40
2022-08-02T16:24:46.021Z,1.43
2022-08-02T16:27:14.148Z,1.50
2022-08-02T16:29:43.649Z,1.38
2022-08-02T16:32:12.454Z,1.30
2022-08-02T16:35:06.774Z,1.48
2022-08-02T16:37:28.709Z,1.40
2022-08-02T16:40:16.694Z,1.48
2022-08-02T16:42:50.281Z,1.33
2022-08-02T16:45:21.457Z,1.70
2022-08-02T16:47:56.287Z,1.50
2022-08-02T16:50:28.229Z,1.57
2022-08-02T16:52:58.391Z,1.40
2022-08-02T16:55:29.119Z,1.40
2022-08-02T16:57:58.776Z,1.58
2022-08-02T17:00:28.449Z,1.50
2022-08-02T17:05:55.809Z,2.03
2022-08-02T17:08:31.882Z,1.50
2022-08-02T17:11:03.411Z,1.40
2022-08-02T17:13:32.183Z,1.63
2022-08-02T17:16:20.830Z,2.10
2022-08-02T17:18:52.595Z,1.50
2022-08-02T17:21:20.756Z,1.50
2022-08-02T17:24:06.037Z,1.58
2022-08-02T17:26:37.535Z,1.70
2022-08-02T17:29:16.346Z,1.30
2022-08-02T17:34:56.364Z,1.75
2022-08-02T17:37:28.659Z,1.40
2022-08-02T17:39:57.398Z,1.60
2022-08-02T17:42:26.419Z,1.40
2022-08-02T17:45:00.961Z,1.60
2022-08-02T17:47:42.239Z,1.52
2022-08-02T17:50:12.541Z,1.50
2022-08-02T17:52:50.064Z,1.85
2022-08-02T17:58:12.392Z,1.40
2022-08-02T18:00:40.685Z,1.80
2022-08-02T18:03:14.414Z,1.60
2022-08-02T18:05:53.456Z,1.50
2022-08-02T18:08:24.145Z,1.50
2022-08-02T18:10:53.375Z,1.40
2022-08-02T18:13:21.694Z,1.58
2022-08-02T18:15:50.273Z,1.25
2022-08-02T18:18:30.034Z,1.60
2022-08-02T18:21:16.322Z,1.77
2022-08-02T18:23:49.519Z,2.00
2022-08-02T18:26:27.372Z,1.80
2022-08-02T18:28:55.754Z,1.67
2022-08-02T18:31:25.080Z,1.73
2022-08-02T18:34:02.055Z,1.67
2022-08-02T18:36:31.465Z,1.47
2022-08-02T18:39:00.019Z,1.50
2022-08-02T18:41:36.787Z,1.40
2022-08-02T18:44:06.761Z,1.50
2022-08-02T18:46:34.822Z,1.80
2022-08-02T18:49:13.365Z,1.57
2022-08-02T18:51:43.427Z,1.45
2022-08-02T18:54:11.614Z,1.50
2022-08-02T18:56:40.120Z,1.40
2022-08-02T18:59:08.401Z,1.60
2022-08-02T19:01:48.634Z,1.50
2022-08-02T19:04:27.191Z,1.80
2022-08-02T19:06:56.803Z,1.50
2022-08-02T19:09:35.481Z,1.85
2022-08-02T19:12:04.336Z,1.90
2022-08-02T19:14:36.420Z,1.90
2022-08-02T19:17:15.900Z,1.50
2022-08-02T19:19:56.109Z,1.55
2022-08-02T19:22:24.637Z,1.52
2022-08-02T19:24:59.913Z,1.60
2022-08-02T19:30:18.563Z,1.70
2022-08-02T19:32:59.325Z,1.60
2022-08-02T19:35:34.285Z,1.40
2022-08-02T19:38:10.395Z,1.50
2022-08-02T19:40:41.918Z,1.50
2022-08-02T19:44:24.048Z,1.60
2022-08-02T19:45:58.766Z,1.48
2022-08-02T19:48:28.090Z,1.50
2022-08-02T19:51:00.578Z,1.60
2022-08-02T19:53:47.653Z,1.57
2022-08-02T19:56:20.329Z,1.60
2022-08-02T19:58:51.358Z,1.90
2022-08-02T20:01:25.356Z,1.70
2022-08-02T20:04:06.130Z,1.90
2022-08-02T20:06:36.806Z,1.73
2022-08-02T20:09:05.340Z,1.70
2022-08-02T20:11:34.967Z,1.70
2022-08-02T20:14:04.978Z,1.70
2022-08-02T20:16:33.381Z,1.75
2022-08-02T20:19:02.879Z,1.70
2022-08-02T20:21:35.613Z,1.70
2022-08-02T20:24:07.207Z,1.65
2022-08-02T20:26:35.818Z,1.80
2022-08-02T20:29:06.287Z,1.70
2022-08-02T20:31:36.268Z,1.53
2022-08-02T20:34:05.602Z,1.70
2022-08-02T20:36:35.350Z,1.65
2022-08-02T20:39:03.385Z,1.90
2022-08-02T20:41:37.271Z,1.70
2022-08-02T20:44:15.691Z,2.00
2022-08-02T20:46:59.189Z,1.48
2022-08-02T20:52:23.437Z,1.90
2022-08-02T20:54:52.722Z,2.13
2022-08-02T21:00:12.104Z,1.98
2022-08-02T21:02:40.353Z,2.03
2022-08-02T21:05:17.381Z,2.00
2022-08-02T21:07:47.614Z,1.85
2022-08-02T21:10:16.156Z,2.03
2022-08-02T21:12:45.617Z,2.00
2022-08-02T21:15:13.784Z,1.95
2022-08-02T21:17:54.324Z,2.10
2022-08-02T21:20:27.518Z,2.00
2022-08-02T21:22:58.161Z,1.93
2022-08-02T21:25:50.625Z,2.15
2022-08-02T21:28:17.685Z,2.15
2022-08-02T21:30:46.398Z,2.03
2022-08-02T21:33:23.196Z,2.17
2022-08-02T21:35:52.284Z,1.90
2022-08-02T21:38:35.291Z,2.00
2022-08-02T21:41:06.972Z,1.73
2022-08-02T21:43:43.907Z,2.00
2022-08-02T21:46:14.567Z,1.83
2022-08-02T21:48:43.186Z,1.93
2022-08-02T21:51:16.036Z,2.00
2022-08-02T21:54:18.091Z,2.20
2022-08-02T21:56:32.546Z,1.88
2022-08-02T21:59:13.518Z,2.10
2022-08-02T22:01:52.773Z,2.20
2022-08-02T22:04:21.608Z,2.38
2022-08-02T22:06:50.059Z,2.28
2022-08-02T22:09:43.883Z,2.30
2022-08-02T22:12:10.133Z,2.28
2022-08-02T22:14:39.979Z,2.20
2022-08-02T22:17:13.553Z,2.30
2022-08-02T22:19:54.007Z,2.50
2022-08-02T22:22:28.707Z,2.53
2022-08-02T22:24:57.429Z,2.40
2022-08-02T22:28:35.149Z,2.40
2022-08-02T22:30:15.234Z,2.28
2022-08-02T22:33:00.661Z,2.28
2022-08-02T22:35:28.939Z,2.30
2022-08-02T22:38:16.730Z,2.30
2022-08-02T22:40:45.203Z,2.40
2022-08-02T22:43:15.921Z,2.50
2022-08-02T22:45:52.679Z,2.40
2022-08-02T22:48:20.828Z,2.47
2022-08-02T22:50:52.926Z,2.40
2022-08-02T22:53:35.645Z,2.60
2022-08-02T22:56:04.470Z,2.40
2022-08-02T22:58:32.770Z,2.40
2022-08-02T22:58:41.051Z,1.43
2022-08-02T22:58:48.174Z,1.40
2022-08-02T22:58:48.715Z,1.60
2022-08-02T22:58:50.850Z,1.40
2022-08-02T22:58:56.349Z,1.98
2022-08-02T22:58:56.591Z,2.00
2022-08-02T23:01:02.440Z,2.70
2022-08-02T23:03:31.141Z,2.65
2022-08-02T23:05:59.298Z,2.20
2022-08-02T23:08:27.311Z,2.13
2022-08-02T23:10:55.413Z,2.30
2022-08-02T23:13:28.161Z,2.65
2022-08-02T23:16:13.841Z,2.50
2022-08-02T23:19:00.981Z,2.37
2022-08-02T23:22:01.929Z,2.45
2022-08-02T23:24:22.594Z,2.60
2022-08-02T23:26:50.633Z,2.47
2022-08-02T23:29:18.651Z,2.58
2022-08-02T23:31:46.753Z,2.53
2022-08-02T23:34:16.130Z,2.45
2022-08-02T23:36:44.190Z,2.55
2022-08-02T23:39:12.218Z,2.42
2022-08-02T23:41:40.383Z,2.50
2022-08-02T23:44:13.933Z,2.30
2022-08-02T23:46:43.272Z,2.53
2022-08-02T23:49:13.015Z,2.40
2022-08-02T23:51:42.450Z,2.53
2022-08-02T23:54:10.669Z,2.53
2022-08-02T23:56:38.893Z,2.27
2022-08-02T23:59:08.618Z,2.60
